Time;durP1;ratioP1;P1;durP2;ratioP2;P2;SDS_P1;SDS_P2;PMS_P1;PMS_P2;Temp;Humidity;BMP_temperature;BMP_pressure;BME280_temperature;BME280_humidity;BME280_pressure;Samples;Min_cycle;Max_cycle;Signal;HPM_P1;HPM_P2
2022/05/26 00:00:37;;;;;;;22.15;15.00;;;;;;;;;;4464346;79;28566;-77
2022/05/26 00:06:38;;;;;;;23.30;14.00;;;;;;;;;;4443736;78;28522;-77
2022/05/26 00:12:39;;;;;;;25.25;14.85;;;;;;;;;;4476221;78;28596;-77
2022/05/26 00:18:46;;;;;;;23.27;13.83;;;;;;;;;;4473980;78;28512;-77
2022/05/26 00:24:47;;;;;;;20.60;13.10;;;;;;;;;;4466456;79;28470;-77
2022/05/26 00:30:48;;;;;;;22.17;12.35;;;;;;;;;;4458484;78;28488;-77
2022/05/26 00:36:49;;;;;;;18.17;11.85;;;;;;;;;;4518183;78;28513;-77
2022/05/26 00:42:50;;;;;;;19.20;11.33;;;;;;;;;;4485305;78;28452;-77
2022/05/26 00:48:53;;;;;;;16.55;11.05;;;;;;;;;;4472635;78;28504;-77
2022/05/26 00:54:55;;;;;;;17.60;10.82;;;;;;;;;;4472100;78;28573;-78
2022/05/26 01:00:58;;;;;;;14.78;9.20;;;;;;;;;;4443413;78;28554;-79
2022/05/26 01:07:04;;;;;;;12.88;8.28;;;;;;;;;;4487391;78;28570;-79
2022/05/26 01:13:05;;;;;;;11.73;7.22;;;;;;;;;;4391741;79;28473;-79
2022/05/26 01:19:10;;;;;;;11.70;7.60;;;;;;;;;;4415325;79;28490;-79
2022/05/26 01:25:30;;;;;;;11.53;7.27;;;;;;;;;;4455702;79;33561;-78
2022/05/26 01:31:36;;;;;;;11.35;7.90;;;;;;;;;;4474652;77;28527;-78
2022/05/26 01:37:37;;;;;;;;;;;;;;;;;;4477463;79;28466;-79
2022/05/26 01:43:49;;;;;;;11.08;6.47;;;;;;;;;;4476996;79;20308;-80
2022/05/26 01:49:51;;;;;;;11.00;6.85;;;;;;;;;;4474735;78;28541;-78
2022/05/26 01:56:00;;;;;;;8.65;6.17;;;;;;;;;;4482257;77;28461;-78
2022/05/26 02:02:02;;;;;;;10.58;6.80;;;;;;;;;;4493048;77;28467;-79
2022/05/26 02:08:12;;;;;;;12.13;6.58;;;;;;;;;;4501738;77;28576;-78
2022/05/26 02:14:14;;;;;;;9.70;5.72;;;;;;;;;;4454836;77;28493;-78
2022/05/26 02:20:17;;;;;;;8.75;5.28;;;;;;;;;;4490847;77;28448;-78
2022/05/26 02:26:18;;;;;;;7.67;5.05;;;;;;;;;;4495293;79;28483;-78
2022/05/26 02:32:30;;;;;;;9.45;6.28;;;;;;;;;;4466211;77;28585;-78
2022/05/26 02:38:36;;;;;;;9.28;5.90;;;;;;;;;;4462461;77;28475;-77
2022/05/26 02:44:37;;;;;;;;;;;;;;;;;;4426888;78;28502;-81
2022/05/26 02:50:40;;;;;;;7.83;5.00;;;;;;;;;;4345487;80;20189;-80
2022/05/26 02:57:01;;;;;;;10.80;4.85;;;;;;;;;;4351364;79;28490;-81
2022/05/26 03:03:03;;;;;;;9.03;4.55;;;;;;;;;;4399090;79;28455;-80
2022/05/26 03:09:12;;;;;;;6.78;5.08;;;;;;;;;;4401545;79;28546;-80
2022/05/26 03:15:13;;;;;;;6.92;4.65;;;;;;;;;;4392889;79;28586;-83
2022/05/26 03:21:14;;;;;;;7.08;4.12;;;;;;;;;;4391987;80;28526;-80
2022/05/26 03:27:21;;;;;;;7.67;4.05;;;;;;;;;;4402373;79;28458;-79
2022/05/26 03:33:22;;;;;;;5.40;4.10;;;;;;;;;;4383643;79;28513;-79
2022/05/26 03:45:42;;;;;;;8.23;4.60;;;;;;;;;;4383674;79;28539;-80
2022/05/26 03:51:45;;;;;;;6.22;4.15;;;;;;;;;;4405304;79;28477;-81
2022/05/26 03:57:51;;;;;;;6.10;4.17;;;;;;;;;;4390021;79;28530;-80
2022/05/26 04:03:52;;;;;;;4.45;3.52;;;;;;;;;;4365980;79;28469;-79
2022/05/26 04:10:02;;;;;;;6.37;4.42;;;;;;;;;;4379504;79;28552;-81
2022/05/26 04:16:10;;;;;;;6.05;4.80;;;;;;;;;;4393456;79;28476;-80
2022/05/26 04:22:18;;;;;;;7.97;4.37;;;;;;;;;;4388467;79;28548;-78
2022/05/26 04:28:19;;;;;;;8.20;3.80;;;;;;;;;;4388152;79;28576;-79
2022/05/26 04:34:20;;;;;;;6.67;3.98;;;;;;;;;;4379593;79;28462;-79
2022/05/26 04:40:21;;;;;;;6.83;3.50;;;;;;;;;;4392799;79;28531;-78
2022/05/26 04:46:22;;;;;;;4.58;3.08;;;;;;;;;;4395448;79;28494;-79
2022/05/26 04:52:24;;;;;;;4.00;2.95;;;;;;;;;;4388348;80;28501;-78
2022/05/26 04:58:31;;;;;;;5.75;2.92;;;;;;;;;;4366901;79;28560;-76
2022/05/26 05:04:32;;;;;;;3.58;2.40;;;;;;;;;;4402974;79;28434;-78
2022/05/26 05:10:33;;;;;;;3.40;1.90;;;;;;;;;;4400220;79;28576;-77
2022/05/26 05:16:42;;;;;;;4.55;2.45;;;;;;;;;;4357362;79;28559;-80
2022/05/26 05:22:46;;;;;;;4.83;2.40;;;;;;;;;;4379098;79;28638;-80
2022/05/26 05:28:50;;;;;;;4.00;2.50;;;;;;;;;;4371727;79;28500;-81
2022/05/26 05:34:53;;;;;;;6.45;3.15;;;;;;;;;;4398620;79;28492;-81
2022/05/26 05:41:00;;;;;;;4.40;3.22;;;;;;;;;;4426030;79;28573;-80
2022/05/26 05:47:01;;;;;;;6.67;3.42;;;;;;;;;;4425589;78;28528;-77
2022/05/26 05:53:03;;;;;;;7.03;3.95;;;;;;;;;;4424071;78;28604;-77
2022/05/26 05:59:09;;;;;;;10.82;4.55;;;;;;;;;;4431693;78;28517;-78
2022/05/26 06:05:10;;;;;;;8.65;3.87;;;;;;;;;;4411317;78;28538;-79
2022/05/26 06:11:11;;;;;;;5.47;3.75;;;;;;;;;;4422760;78;28593;-79
2022/05/26 06:17:13;;;;;;;5.95;3.25;;;;;;;;;;4419791;79;28505;-78
2022/05/26 06:23:15;;;;;;;4.70;3.30;;;;;;;;;;4438249;78;28557;-81
2022/05/26 06:42:08;;;;;;;3.40;2.10;;;;;;;;;;4347032;80;28478;-79
2022/05/26 06:48:08;;;;;;;5.05;2.45;;;;;;;;;;4421261;79;28517;-81
2022/05/26 06:54:10;;;;;;;4.28;2.47;;;;;;;;;;4404506;78;28485;-78
2022/05/26 07:00:12;;;;;;;4.60;2.50;;;;;;;;;;4308740;79;28572;-77
2022/05/26 07:06:14;;;;;;;4.45;2.62;;;;;;;;;;4409270;78;29048;-79
2022/05/26 07:12:15;;;;;;;4.40;3.02;;;;;;;;;;4399350;78;28554;-79
2022/05/26 07:18:17;;;;;;;7.30;3.25;;;;;;;;;;4338303;80;28505;-78
2022/05/26 07:24:24;;;;;;;3.98;2.75;;;;;;;;;;4419255;78;28576;-79
2022/05/26 07:30:24;;;;;;;;;;;;;;;;;;4422262;78;28551;-79
2022/05/26 07:42:40;;;;;;;4.70;2.50;;;;;;;;;;4380464;78;28545;-79
2022/05/26 07:48:41;;;;;;;5.03;2.20;;;;;;;;;;4416295;79;28464;-78
2022/05/26 07:54:43;;;;;;;5.40;2.30;;;;;;;;;;4379995;79;28469;-78
2022/05/26 08:00:53;;;;;;;2.20;2.00;;;;;;;;;;4316887;80;28556;-78
2022/05/26 08:06:53;;;;;;;4.47;2.20;;;;;;;;;;4365693;79;28522;-78
2022/05/26 08:12:55;;;;;;;5.80;2.00;;;;;;;;;;4400389;79;28501;-79
2022/05/26 08:18:56;;;;;;;3.62;1.57;;;;;;;;;;4368640;79;28517;-79
2022/05/26 08:25:03;;;;;;;4.83;1.62;;;;;;;;;;4365948;79;28520;-78
2022/05/26 08:31:04;;;;;;;3.55;1.75;;;;;;;;;;4365963;79;28498;-79
2022/05/26 08:37:07;;;;;;;3.75;1.65;;;;;;;;;;4368638;79;28508;-78
2022/05/26 08:43:10;;;;;;;2.33;1.80;;;;;;;;;;4379465;79;28546;-76
2022/05/26 08:49:12;;;;;;;2.90;1.70;;;;;;;;;;4384035;79;28550;-79
2022/05/26 08:55:15;;;;;;;3.25;1.75;;;;;;;;;;4407861;79;28484;-79
2022/05/26 09:01:18;;;;;;;2.12;1.50;;;;;;;;;;4382168;79;28501;-79
2022/05/26 09:13:41;;;;;;;1.50;0.95;;;;;;;;;;4386381;79;28524;-79
2022/05/26 09:19:44;;;;;;;2.37;1.40;;;;;;;;;;4418690;79;28476;-77
2022/05/26 09:25:47;;;;;;;3.12;1.10;;;;;;;;;;4395406;79;28528;-78
2022/05/26 09:31:49;;;;;;;2.33;1.17;;;;;;;;;;4375381;79;28476;-78
2022/05/26 09:37:51;;;;;;;1.02;0.90;;;;;;;;;;4383247;79;28473;-78
2022/05/26 09:43:58;;;;;;;2.33;1.15;;;;;;;;;;4374020;79;28520;-78
2022/05/26 09:50:04;;;;;;;4.08;0.85;;;;;;;;;;4406947;79;28517;-78
2022/05/26 09:56:05;;;;;;;1.77;1.20;;;;;;;;;;4401603;79;28512;-79
2022/05/26 10:02:23;;;;;;;1.10;0.80;;;;;;;;;;4396343;79;28531;-79
2022/05/26 10:08:29;;;;;;;1.60;0.90;;;;;;;;;;4393197;79;28523;-79
2022/05/26 10:14:44;;;;;;;1.70;0.83;;;;;;;;;;4418867;79;28509;-79
2022/05/26 10:21:03;;;;;;;1.12;0.80;;;;;;;;;;4415664;79;28517;-79
2022/05/26 10:27:16;;;;;;;2.40;0.90;;;;;;;;;;4425355;79;28487;-78
2022/05/26 10:33:19;;;;;;;2.50;0.88;;;;;;;;;;4400705;79;28547;-78
2022/05/26 10:39:38;;;;;;;1.50;0.78;;;;;;;;;;4409582;79;28517;-78
2022/05/26 10:45:45;;;;;;;3.95;1.00;;;;;;;;;;4402361;79;28533;-78
2022/05/26 10:51:47;;;;;;;2.33;1.17;;;;;;;;;;4414105;79;28513;-78
2022/05/26 10:57:53;;;;;;;5.00;0.90;;;;;;;;;;4398915;79;28593;-78
2022/05/26 11:03:56;;;;;;;3.17;0.90;;;;;;;;;;4390337;79;28496;-79
2022/05/26 11:10:08;;;;;;;3.42;1.10;;;;;;;;;;4372562;79;28534;-79
2022/05/26 11:22:33;;;;;;;3.30;0.90;;;;;;;;;;4409632;79;28478;-77
2022/05/26 11:28:42;;;;;;;3.42;1.10;;;;;;;;;;4376184;79;28520;-78
2022/05/26 11:41:05;;;;;;;1.50;0.80;;;;;;;;;;4400464;79;28557;-78
2022/05/26 11:47:23;;;;;;;3.25;0.82;;;;;;;;;;4409162;79;28513;-79
2022/05/26 11:53:32;;;;;;;1.45;0.85;;;;;;;;;;4412544;79;28525;-79
2022/05/26 11:59:43;;;;;;;3.33;0.90;;;;;;;;;;4400284;79;28536;-77
2022/05/26 12:06:04;;;;;;;5.65;1.00;;;;;;;;;;4411960;79;28484;-77
2022/05/26 12:12:07;;;;;;;3.87;0.90;;;;;;;;;;4411225;79;28579;-79
2022/05/26 12:18:10;;;;;;;1.87;1.12;;;;;;;;;;4418717;79;28489;-78
2022/05/26 12:31:22;;;;;;;1.40;0.90;;;;;;;;;;4426611;79;28517;-78
2022/05/26 12:37:41;;;;;;;2.22;0.90;;;;;;;;;;4418607;79;28449;-78
2022/05/26 12:50:48;;;;;;;1.45;0.85;;;;;;;;;;4416798;79;28545;-78
2022/05/26 12:56:57;;;;;;;1.75;0.65;;;;;;;;;;4396979;79;28611;-79
2022/05/26 13:03:09;;;;;;;1.42;0.57;;;;;;;;;;4384110;79;28499;-78
2022/05/26 13:09:15;;;;;;;4.15;0.75;;;;;;;;;;4395621;80;28518;-79
2022/05/26 13:15:21;;;;;;;2.37;0.72;;;;;;;;;;4385563;79;28502;-79
2022/05/26 13:21:24;;;;;;;5.33;1.20;;;;;;;;;;4400954;79;28548;-79
2022/05/26 13:27:45;;;;;;;8.08;1.50;;;;;;;;;;4398133;79;28554;-79
2022/05/26 13:33:51;;;;;;;1.70;0.85;;;;;;;;;;4392067;79;28490;-78
2022/05/26 13:40:04;;;;;;;1.52;0.90;;;;;;;;;;4393108;79;28486;-79
2022/05/26 13:46:06;;;;;;;3.85;1.10;;;;;;;;;;4403080;79;28515;-79
2022/05/26 13:52:09;;;;;;;3.12;1.20;;;;;;;;;;4395303;79;28520;-79
2022/05/26 13:58:13;;;;;;;1.30;0.93;;;;;;;;;;4349491;79;28549;-78
2022/05/26 14:04:22;;;;;;;3.52;0.80;;;;;;;;;;4358283;80;28587;-79
2022/05/26 14:10:30;;;;;;;2.65;1.00;;;;;;;;;;4347735;79;28527;-78
2022/05/26 14:16:31;;;;;;;2.62;1.00;;;;;;;;;;4351920;79;28569;-79
2022/05/26 14:22:34;;;;;;;1.27;0.80;;;;;;;;;;4362478;79;28513;-78
2022/05/26 14:28:37;;;;;;;2.35;0.68;;;;;;;;;;4343278;79;28541;-78
2022/05/26 14:34:39;;;;;;;3.80;0.70;;;;;;;;;;4367208;79;28617;-78
2022/05/26 14:40:40;;;;;;;1.92;0.80;;;;;;;;;;4331360;79;28531;-78
2022/05/26 14:46:47;;;;;;;1.52;0.90;;;;;;;;;;4339352;79;28461;-79
2022/05/26 14:52:49;;;;;;;4.50;0.70;;;;;;;;;;4326570;80;28500;-79
2022/05/26 14:58:50;;;;;;;1.90;0.60;;;;;;;;;;4364993;79;28549;-79
2022/05/26 15:04:50;;;;;;;2.42;0.60;;;;;;;;;;4365772;80;28511;-79
2022/05/26 15:10:52;;;;;;;1.00;0.57;;;;;;;;;;4379161;80;29035;-79
2022/05/26 15:16:55;;;;;;;8.00;0.80;;;;;;;;;;4435035;78;28497;-79
2022/05/26 15:22:56;;;;;;;1.52;0.57;;;;;;;;;;4332099;80;28471;-79
2022/05/26 15:28:57;;;;;;;2.10;0.53;;;;;;;;;;4341138;80;28534;-78
2022/05/26 15:34:58;;;;;;;1.98;0.60;;;;;;;;;;4397193;79;28533;-78
2022/05/26 15:40:58;;;;;;;0.82;0.50;;;;;;;;;;4394879;79;28509;-78
2022/05/26 15:47:01;;;;;;;1.72;0.40;;;;;;;;;;4409409;79;28524;-81
2022/05/26 15:53:01;;;;;;;1.20;0.50;;;;;;;;;;4417607;78;28508;-80
2022/05/26 15:59:10;;;;;;;0.60;0.40;;;;;;;;;;4454227;78;28509;-80
2022/05/26 16:05:18;;;;;;;1.52;0.42;;;;;;;;;;4520898;78;28505;-80
2022/05/26 16:11:25;;;;;;;0.82;0.50;;;;;;;;;;4515699;77;28486;-81
2022/05/26 16:17:26;;;;;;;0.85;0.53;;;;;;;;;;4511071;77;28498;-79
2022/05/26 16:23:27;;;;;;;6.97;0.75;;;;;;;;;;4511396;77;28534;-79
2022/05/26 16:29:28;;;;;;;1.70;0.70;;;;;;;;;;4527408;77;28510;-81
2022/05/26 16:41:51;;;;;;;1.12;0.57;;;;;;;;;;4514317;77;28531;-80
2022/05/26 16:47:57;;;;;;;1.17;0.70;;;;;;;;;;4513290;77;28498;-79
2022/05/26 16:53:58;;;;;;;3.85;0.53;;;;;;;;;;4488883;78;28499;-80
2022/05/26 16:59:59;;;;;;;2.85;0.60;;;;;;;;;;4458461;78;28542;-80
2022/05/26 17:06:00;;;;;;;3.98;0.70;;;;;;;;;;4483985;78;28500;-82
2022/05/26 17:12:08;;;;;;;0.88;0.50;;;;;;;;;;4476169;78;28495;-80
2022/05/26 17:24:30;;;;;;;3.80;0.70;;;;;;;;;;4459017;79;28592;-79
2022/05/26 17:30:31;;;;;;;3.30;0.62;;;;;;;;;;4475073;78;28569;-79
2022/05/26 17:36:42;;;;;;;4.25;1.02;;;;;;;;;;4441622;78;28531;-78
2022/05/26 17:42:45;;;;;;;2.15;0.70;;;;;;;;;;4455118;79;28677;-81
2022/05/26 17:48:49;;;;;;;3.02;0.78;;;;;;;;;;4448148;78;28551;-79
2022/05/26 17:54:52;;;;;;;3.08;0.95;;;;;;;;;;4484335;77;28522;-79
2022/05/26 18:00:56;;;;;;;4.42;1.10;;;;;;;;;;4488922;77;28526;-79
2022/05/26 18:07:00;;;;;;;1.70;1.02;;;;;;;;;;4511931;77;28570;-80
2022/05/26 18:13:06;;;;;;;3.08;1.95;;;;;;;;;;4496883;77;28570;-82
2022/05/26 18:19:14;;;;;;;1.95;0.98;;;;;;;;;;4495204;77;28518;-84
2022/05/26 18:25:23;;;;;;;2.80;1.30;;;;;;;;;;4512378;77;28514;-80
2022/05/26 18:31:26;;;;;;;2.75;1.00;;;;;;;;;;4497796;77;28481;-80
2022/05/26 18:37:35;;;;;;;3.05;1.00;;;;;;;;;;4503879;77;28647;-82
2022/05/26 18:43:36;;;;;;;1.47;0.80;;;;;;;;;;4499346;77;28525;-82
2022/05/26 18:49:45;;;;;;;3.65;0.90;;;;;;;;;;4501872;77;28523;-80
2022/05/26 18:55:52;;;;;;;4.00;1.10;;;;;;;;;;4460691;77;28543;-81
2022/05/26 19:02:01;;;;;;;1.22;0.82;;;;;;;;;;4461879;78;28575;-82
2022/05/26 19:08:02;;;;;;;4.85;1.02;;;;;;;;;;4451179;78;28528;-84
2022/05/26 19:14:04;;;;;;;3.33;1.20;;;;;;;;;;4436100;78;28489;-81
2022/05/26 19:20:05;;;;;;;3.02;1.05;;;;;;;;;;4456105;78;28588;-79
2022/05/26 19:26:09;;;;;;;2.95;0.95;;;;;;;;;;4465170;78;28590;-82
2022/05/26 19:32:10;;;;;;;3.40;1.20;;;;;;;;;;4465921;78;28570;-82
2022/05/26 19:38:11;;;;;;;4.03;1.12;;;;;;;;;;4463216;78;28499;-80
2022/05/26 19:44:13;;;;;;;1.95;1.15;;;;;;;;;;4482847;78;28525;-80
2022/05/26 19:50:15;;;;;;;2.20;1.17;;;;;;;;;;4448827;78;28583;-84
2022/05/26 19:56:16;;;;;;;3.25;1.80;;;;;;;;;;4455314;78;28512;-85
2022/05/26 20:02:17;;;;;;;4.12;1.60;;;;;;;;;;4450778;78;28546;-84
2022/05/26 20:08:20;;;;;;;3.58;1.65;;;;;;;;;;4468286;78;28618;-83
2022/05/26 20:14:27;;;;;;;4.33;1.77;;;;;;;;;;4472670;78;28535;-83
2022/05/26 20:20:30;;;;;;;5.33;1.80;;;;;;;;;;4490166;76;28569;-83
2022/05/26 20:26:36;;;;;;;3.58;1.80;;;;;;;;;;4475427;78;28543;-83
2022/05/26 20:32:37;;;;;;;3.72;1.90;;;;;;;;;;4464220;78;28515;-83
2022/05/26 20:38:38;;;;;;;4.67;1.67;;;;;;;;;;4485893;79;28512;-82
2022/05/26 20:44:42;;;;;;;3.62;1.90;;;;;;;;;;4489023;78;28578;-83
2022/05/26 20:50:44;;;;;;;3.47;1.45;;;;;;;;;;4468542;78;28499;-82
2022/05/26 20:56:45;;;;;;;2.65;1.60;;;;;;;;;;4466031;78;28527;-80
2022/05/26 21:02:46;;;;;;;4.40;1.75;;;;;;;;;;4488537;78;28526;-82
2022/05/26 21:08:48;;;;;;;4.15;1.77;;;;;;;;;;4485630;78;28557;-82
2022/05/26 21:14:49;;;;;;;3.20;2.20;;;;;;;;;;4463455;78;28561;-81
2022/05/26 21:20:49;;;;;;;4.90;1.75;;;;;;;;;;4482321;78;28544;-81
2022/05/26 21:26:56;;;;;;;5.67;1.60;;;;;;;;;;4486399;78;28511;-82
2022/05/26 21:32:57;;;;;;;4.00;1.45;;;;;;;;;;4463563;79;28526;-82
2022/05/26 21:38:57;;;;;;;2.80;1.30;;;;;;;;;;4451936;78;28553;-83
2022/05/26 21:44:59;;;;;;;3.95;1.67;;;;;;;;;;4478075;78;28474;-83
2022/05/26 21:51:00;;;;;;;4.15;1.30;;;;;;;;;;4472250;79;28529;-84
2022/05/26 21:57:08;;;;;;;4.42;1.47;;;;;;;;;;4506778;77;28504;-84
2022/05/26 22:03:09;;;;;;;3.15;1.57;;;;;;;;;;4503852;77;28524;-83
2022/05/26 22:15:31;;;;;;;2.20;1.25;;;;;;;;;;4512715;77;28462;-84
2022/05/26 22:21:40;;;;;;;2.92;1.25;;;;;;;;;;4517084;78;28537;-83
2022/05/26 22:27:47;;;;;;;2.25;1.30;;;;;;;;;;4519748;77;28482;-83
2022/05/26 22:33:48;;;;;;;5.03;1.30;;;;;;;;;;4495982;77;28518;-84
2022/05/26 22:39:55;;;;;;;3.40;1.22;;;;;;;;;;4524760;77;28474;-83
2022/05/26 22:45:57;;;;;;;2.55;1.20;;;;;;;;;;4507361;77;28475;-83
2022/05/26 22:51:58;;;;;;;2.67;1.30;;;;;;;;;;4522388;77;28518;-83
2022/05/26 22:58:02;;;;;;;3.50;1.22;;;;;;;;;;4516284;77;28471;-84
2022/05/26 23:04:02;;;;;;;2.72;1.27;;;;;;;;;;4502972;77;28513;-83
2022/05/26 23:10:07;;;;;;;2.77;1.30;;;;;;;;;;4518405;77;28498;-83
2022/05/26 23:16:08;;;;;;;1.50;1.10;;;;;;;;;;4494674;77;28540;-83
2022/05/26 23:22:09;;;;;;;2.65;1.20;;;;;;;;;;4516174;77;28526;-83
2022/05/26 23:28:10;;;;;;;5.83;1.32;;;;;;;;;;4513678;77;28447;-84
2022/05/26 23:34:12;;;;;;;2.50;1.10;;;;;;;;;;4513569;78;28451;-83
2022/05/26 23:40:19;;;;;;;1.90;1.10;;;;;;;;;;4503209;77;28509;-82
2022/05/26 23:46:26;;;;;;;1.87;0.90;;;;;;;;;;4481733;77;28522;-82
2022/05/26 23:52:27;;;;;;;1.57;1.00;;;;;;;;;;4471780;77;28469;-82
2022/05/26 23:58:28;;;;;;;3.45;0.95;;;;;;;;;;4466724;78;28517;-82
